sensor_id;sensor_type;location;lat;lon;timestamp;P1;durP1;ratioP1;P2;durP2;ratioP2
8540;SDS011;4308;51.294;6.590;2024-02-26T00:00:18;3.87;;;2.37;;
8540;SDS011;4308;51.294;6.590;2024-02-26T00:02:45;2.20;;;2.00;;
8540;SDS011;4308;51.294;6.590;2024-02-26T00:05:13;2.47;;;2.03;;
8540;SDS011;4308;51.294;6.590;2024-02-26T00:07:41;3.80;;;2.27;;
8540;SDS011;4308;51.294;6.590;2024-02-26T00:10:08;3.27;;;2.43;;
8540;SDS011;4308;51.294;6.590;2024-02-26T00:12:36;5.27;;;2.50;;
8540;SDS011;4308;51.294;6.590;2024-02-26T00:15:04;3.23;;;2.00;;
8540;SDS011;4308;51.294;6.590;2024-02-26T00:17:31;2.40;;;2.10;;
8540;SDS011;4308;51.294;6.590;2024-02-26T00:19:59;3.10;;;2.10;;
8540;SDS011;4308;51.294;6.590;2024-02-26T00:22:27;2.57;;;1.70;;
8540;SDS011;4308;51.294;6.590;2024-02-26T00:24:56;2.37;;;2.00;;
8540;SDS011;4308;51.294;6.590;2024-02-26T00:27:24;2.90;;;2.30;;
8540;SDS011;4308;51.294;6.590;2024-02-26T00:29:52;2.57;;;2.10;;
8540;SDS011;4308;51.294;6.590;2024-02-26T00:32:19;4.07;;;2.10;;
8540;SDS011;4308;51.294;6.590;2024-02-26T00:34:47;2.80;;;2.13;;
8540;SDS011;4308;51.294;6.590;2024-02-26T00:37:14;2.50;;;1.70;;
8540;SDS011;4308;51.294;6.590;2024-02-26T00:39:42;4.30;;;2.10;;
8540;SDS011;4308;51.294;6.590;2024-02-26T00:42:10;3.83;;;1.70;;
8540;SDS011;4308;51.294;6.590;2024-02-26T00:44:37;2.30;;;1.90;;
8540;SDS011;4308;51.294;6.590;2024-02-26T00:47:05;3.97;;;1.93;;
8540;SDS011;4308;51.294;6.590;2024-02-26T00:49:33;3.33;;;2.07;;
8540;SDS011;4308;51.294;6.590;2024-02-26T00:52:01;3.33;;;2.03;;
8540;SDS011;4308;51.294;6.590;2024-02-26T00:54:28;1.90;;;1.70;;
8540;SDS011;4308;51.294;6.590;2024-02-26T00:56:56;2.60;;;1.93;;
8540;SDS011;4308;51.294;6.590;2024-02-26T00:59:24;3.77;;;1.20;;
8540;SDS011;4308;51.294;6.590;2024-02-26T01:01:51;3.97;;;1.97;;
8540;SDS011;4308;51.294;6.590;2024-02-26T01:04:19;2.40;;;1.90;;
8540;SDS011;4308;51.294;6.590;2024-02-26T01:06:47;1.77;;;1.63;;
8540;SDS011;4308;51.294;6.590;2024-02-26T01:09:14;3.50;;;2.03;;
8540;SDS011;4308;51.294;6.590;2024-02-26T01:11:42;2.33;;;2.10;;
8540;SDS011;4308;51.294;6.590;2024-02-26T01:14:10;2.10;;;1.70;;
8540;SDS011;4308;51.294;6.590;2024-02-26T01:16:38;4.03;;;2.53;;
8540;SDS011;4308;51.294;6.590;2024-02-26T01:19:05;2.50;;;1.60;;
8540;SDS011;4308;51.294;6.590;2024-02-26T01:21:33;1.90;;;1.67;;
8540;SDS011;4308;51.294;6.590;2024-02-26T01:24:01;2.50;;;2.23;;
8540;SDS011;4308;51.294;6.590;2024-02-26T01:26:28;2.77;;;2.00;;
8540;SDS011;4308;51.294;6.590;2024-02-26T01:28:56;2.50;;;2.17;;
8540;SDS011;4308;51.294;6.590;2024-02-26T01:31:24;3.00;;;1.60;;
8540;SDS011;4308;51.294;6.590;2024-02-26T01:33:51;2.67;;;1.87;;
8540;SDS011;4308;51.294;6.590;2024-02-26T01:36:19;2.43;;;2.20;;
8540;SDS011;4308;51.294;6.590;2024-02-26T01:38:47;2.53;;;1.50;;
8540;SDS011;4308;51.294;6.590;2024-02-26T01:41:15;1.50;;;1.33;;
8540;SDS011;4308;51.294;6.590;2024-02-26T01:43:42;2.23;;;1.70;;
8540;SDS011;4308;51.294;6.590;2024-02-26T01:46:11;1.90;;;1.60;;
8540;SDS011;4308;51.294;6.590;2024-02-26T01:48:42;1.57;;;1.47;;
8540;SDS011;4308;51.294;6.590;2024-02-26T01:51:11;2.03;;;1.60;;
8540;SDS011;4308;51.294;6.590;2024-02-26T01:53:39;2.90;;;1.80;;
8540;SDS011;4308;51.294;6.590;2024-02-26T01:56:08;1.70;;;1.60;;
8540;SDS011;4308;51.294;6.590;2024-02-26T01:58:35;4.07;;;1.90;;
8540;SDS011;4308;51.294;6.590;2024-02-26T02:01:03;2.17;;;1.60;;
8540;SDS011;4308;51.294;6.590;2024-02-26T02:03:31;1.93;;;1.43;;
8540;SDS011;4308;51.294;6.590;2024-02-26T02:05:59;2.23;;;1.70;;
8540;SDS011;4308;51.294;6.590;2024-02-26T02:08:27;2.40;;;2.10;;
8540;SDS011;4308;51.294;6.590;2024-02-26T02:10:55;2.30;;;2.10;;
8540;SDS011;4308;51.294;6.590;2024-02-26T02:13:22;3.20;;;2.70;;
8540;SDS011;4308;51.294;6.590;2024-02-26T02:15:50;1.87;;;1.77;;
8540;SDS011;4308;51.294;6.590;2024-02-26T02:18:18;4.53;;;2.50;;
8540;SDS011;4308;51.294;6.590;2024-02-26T02:20:46;2.57;;;1.87;;
8540;SDS011;4308;51.294;6.590;2024-02-26T02:23:14;2.40;;;1.77;;
8540;SDS011;4308;51.294;6.590;2024-02-26T02:25:41;3.90;;;2.30;;
8540;SDS011;4308;51.294;6.590;2024-02-26T02:28:09;2.33;;;2.10;;
8540;SDS011;4308;51.294;6.590;2024-02-26T02:30:37;2.23;;;2.03;;
8540;SDS011;4308;51.294;6.590;2024-02-26T02:33:05;3.93;;;2.00;;
8540;SDS011;4308;51.294;6.590;2024-02-26T02:35:33;3.37;;;2.20;;
8540;SDS011;4308;51.294;6.590;2024-02-26T02:38:00;2.13;;;1.93;;
8540;SDS011;4308;51.294;6.590;2024-02-26T02:40:28;1.80;;;1.37;;
8540;SDS011;4308;51.294;6.590;2024-02-26T02:42:55;2.40;;;1.90;;
8540;SDS011;4308;51.294;6.590;2024-02-26T02:45:23;2.17;;;1.97;;
8540;SDS011;4308;51.294;6.590;2024-02-26T02:47:51;3.23;;;1.73;;
8540;SDS011;4308;51.294;6.590;2024-02-26T02:50:18;1.80;;;1.60;;
8540;SDS011;4308;51.294;6.590;2024-02-26T02:52:46;1.90;;;1.73;;
8540;SDS011;4308;51.294;6.590;2024-02-26T02:55:14;3.40;;;1.73;;
8540;SDS011;4308;51.294;6.590;2024-02-26T02:57:41;2.47;;;2.00;;
8540;SDS011;4308;51.294;6.590;2024-02-26T03:00:09;1.30;;;1.20;;
8540;SDS011;4308;51.294;6.590;2024-02-26T03:02:37;2.60;;;1.80;;
8540;SDS011;4308;51.294;6.590;2024-02-26T03:05:05;2.10;;;1.93;;
8540;SDS011;4308;51.294;6.590;2024-02-26T03:07:33;4.23;;;1.90;;
8540;SDS011;4308;51.294;6.590;2024-02-26T03:10:00;2.67;;;1.67;;
8540;SDS011;4308;51.294;6.590;2024-02-26T03:12:29;5.70;;;2.17;;
8540;SDS011;4308;51.294;6.590;2024-02-26T03:14:57;1.90;;;1.80;;
8540;SDS011;4308;51.294;6.590;2024-02-26T03:17:24;2.33;;;1.80;;
8540;SDS011;4308;51.294;6.590;2024-02-26T03:19:52;1.90;;;1.43;;
8540;SDS011;4308;51.294;6.590;2024-02-26T03:22:20;2.30;;;2.10;;
8540;SDS011;4308;51.294;6.590;2024-02-26T03:24:48;2.73;;;1.77;;
8540;SDS011;4308;51.294;6.590;2024-02-26T03:27:15;2.13;;;1.90;;
8540;SDS011;4308;51.294;6.590;2024-02-26T03:29:43;4.50;;;2.00;;
8540;SDS011;4308;51.294;6.590;2024-02-26T03:32:11;5.30;;;2.47;;
8540;SDS011;4308;51.294;6.590;2024-02-26T03:34:38;2.13;;;1.77;;
8540;SDS011;4308;51.294;6.590;2024-02-26T03:37:06;4.80;;;2.87;;
8540;SDS011;4308;51.294;6.590;2024-02-26T03:39:34;2.70;;;2.10;;
8540;SDS011;4308;51.294;6.590;2024-02-26T03:42:01;5.93;;;2.03;;
8540;SDS011;4308;51.294;6.590;2024-02-26T03:44:29;3.07;;;2.30;;
8540;SDS011;4308;51.294;6.590;2024-02-26T03:46:57;2.63;;;2.00;;
8540;SDS011;4308;51.294;6.590;2024-02-26T03:49:24;2.30;;;2.10;;
8540;SDS011;4308;51.294;6.590;2024-02-26T03:51:52;3.87;;;2.20;;
8540;SDS011;4308;51.294;6.590;2024-02-26T03:54:19;3.53;;;1.97;;
8540;SDS011;4308;51.294;6.590;2024-02-26T03:56:47;4.13;;;2.30;;
8540;SDS011;4308;51.294;6.590;2024-02-26T03:59:15;5.53;;;3.60;;
8540;SDS011;4308;51.294;6.590;2024-02-26T04:01:46;4.53;;;2.87;;
8540;SDS011;4308;51.294;6.590;2024-02-26T04:04:13;3.93;;;3.53;;
8540;SDS011;4308;51.294;6.590;2024-02-26T04:06:44;3.93;;;2.70;;
8540;SDS011;4308;51.294;6.590;2024-02-26T04:09:13;3.00;;;2.80;;
8540;SDS011;4308;51.294;6.590;2024-02-26T04:11:41;3.00;;;2.80;;
8540;SDS011;4308;51.294;6.590;2024-02-26T04:14:09;5.77;;;4.00;;
8540;SDS011;4308;51.294;6.590;2024-02-26T04:16:36;5.00;;;2.70;;
8540;SDS011;4308;51.294;6.590;2024-02-26T04:19:04;3.10;;;2.80;;
8540;SDS011;4308;51.294;6.590;2024-02-26T04:21:32;4.13;;;3.60;;
8540;SDS011;4308;51.294;6.590;2024-02-26T04:24:00;5.13;;;4.03;;
8540;SDS011;4308;51.294;6.590;2024-02-26T04:26:28;3.70;;;2.70;;
8540;SDS011;4308;51.294;6.590;2024-02-26T04:28:55;6.40;;;4.80;;
8540;SDS011;4308;51.294;6.590;2024-02-26T04:31:23;4.30;;;3.20;;
8540;SDS011;4308;51.294;6.590;2024-02-26T04:33:50;4.23;;;3.33;;
8540;SDS011;4308;51.294;6.590;2024-02-26T04:36:18;4.23;;;3.13;;
8540;SDS011;4308;51.294;6.590;2024-02-26T04:38:46;6.37;;;3.97;;
8540;SDS011;4308;51.294;6.590;2024-02-26T04:41:14;3.63;;;2.93;;
8540;SDS011;4308;51.294;6.590;2024-02-26T04:43:41;4.13;;;3.20;;
8540;SDS011;4308;51.294;6.590;2024-02-26T04:46:09;3.10;;;2.80;;
8540;SDS011;4308;51.294;6.590;2024-02-26T04:48:37;3.17;;;2.87;;
8540;SDS011;4308;51.294;6.590;2024-02-26T04:51:04;4.37;;;3.30;;
8540;SDS011;4308;51.294;6.590;2024-02-26T04:53:32;3.60;;;3.27;;
8540;SDS011;4308;51.294;6.590;2024-02-26T04:56:00;3.93;;;2.73;;
8540;SDS011;4308;51.294;6.590;2024-02-26T04:58:27;3.73;;;2.77;;
8540;SDS011;4308;51.294;6.590;2024-02-26T05:00:55;5.33;;;3.23;;
8540;SDS011;4308;51.294;6.590;2024-02-26T05:03:22;6.73;;;2.80;;
8540;SDS011;4308;51.294;6.590;2024-02-26T05:05:50;4.07;;;3.67;;
8540;SDS011;4308;51.294;6.590;2024-02-26T05:08:18;4.23;;;3.30;;
8540;SDS011;4308;51.294;6.590;2024-02-26T05:10:45;5.87;;;4.03;;
8540;SDS011;4308;51.294;6.590;2024-02-26T05:13:13;4.77;;;3.53;;
8540;SDS011;4308;51.294;6.590;2024-02-26T05:15:41;4.67;;;3.97;;
8540;SDS011;4308;51.294;6.590;2024-02-26T05:18:09;5.90;;;4.63;;
8540;SDS011;4308;51.294;6.590;2024-02-26T05:20:36;3.90;;;3.33;;
8540;SDS011;4308;51.294;6.590;2024-02-26T05:23:04;6.13;;;4.23;;
8540;SDS011;4308;51.294;6.590;2024-02-26T05:25:31;7.33;;;6.57;;
8540;SDS011;4308;51.294;6.590;2024-02-26T05:27:59;5.37;;;4.87;;
8540;SDS011;4308;51.294;6.590;2024-02-26T05:30:27;7.03;;;5.90;;
8540;SDS011;4308;51.294;6.590;2024-02-26T05:32:55;6.50;;;5.80;;
8540;SDS011;4308;51.294;6.590;2024-02-26T05:35:23;7.13;;;5.97;;
8540;SDS011;4308;51.294;6.590;2024-02-26T05:37:53;4.13;;;3.73;;
8540;SDS011;4308;51.294;6.590;2024-02-26T05:40:20;6.67;;;5.07;;
8540;SDS011;4308;51.294;6.590;2024-02-26T05:42:48;6.53;;;5.23;;
8540;SDS011;4308;51.294;6.590;2024-02-26T05:45:19;4.20;;;3.80;;
8540;SDS011;4308;51.294;6.590;2024-02-26T05:47:47;4.77;;;4.20;;
8540;SDS011;4308;51.294;6.590;2024-02-26T05:50:15;4.60;;;3.70;;
8540;SDS011;4308;51.294;6.590;2024-02-26T05:52:42;6.67;;;4.60;;
8540;SDS011;4308;51.294;6.590;2024-02-26T05:55:10;7.97;;;5.07;;
8540;SDS011;4308;51.294;6.590;2024-02-26T05:57:40;3.53;;;3.23;;
8540;SDS011;4308;51.294;6.590;2024-02-26T06:00:08;4.40;;;3.10;;
8540;SDS011;4308;51.294;6.590;2024-02-26T06:02:40;5.27;;;2.83;;
8540;SDS011;4308;51.294;6.590;2024-02-26T06:05:08;4.17;;;3.30;;
8540;SDS011;4308;51.294;6.590;2024-02-26T06:07:36;6.40;;;3.80;;
8540;SDS011;4308;51.294;6.590;2024-02-26T06:10:04;4.73;;;3.13;;
8540;SDS011;4308;51.294;6.590;2024-02-26T06:12:31;3.63;;;3.27;;
8540;SDS011;4308;51.294;6.590;2024-02-26T06:15:02;3.90;;;3.60;;
8540;SDS011;4308;51.294;6.590;2024-02-26T06:17:30;6.13;;;3.60;;
8540;SDS011;4308;51.294;6.590;2024-02-26T06:19:57;3.67;;;3.13;;
8540;SDS011;4308;51.294;6.590;2024-02-26T06:22:25;4.73;;;4.17;;
8540;SDS011;4308;51.294;6.590;2024-02-26T06:24:53;9.87;;;6.33;;
8540;SDS011;4308;51.294;6.590;2024-02-26T06:27:21;4.83;;;3.60;;
8540;SDS011;4308;51.294;6.590;2024-02-26T06:29:48;6.43;;;4.30;;
8540;SDS011;4308;51.294;6.590;2024-02-26T06:32:16;4.73;;;4.33;;
8540;SDS011;4308;51.294;6.590;2024-02-26T06:34:44;5.43;;;3.27;;
8540;SDS011;4308;51.294;6.590;2024-02-26T06:37:12;4.67;;;3.33;;
8540;SDS011;4308;51.294;6.590;2024-02-26T06:39:39;3.83;;;3.53;;
8540;SDS011;4308;51.294;6.590;2024-02-26T06:42:07;5.77;;;4.37;;
8540;SDS011;4308;51.294;6.590;2024-02-26T06:44:35;4.70;;;3.70;;
8540;SDS011;4308;51.294;6.590;2024-02-26T06:47:02;4.03;;;3.67;;
8540;SDS011;4308;51.294;6.590;2024-02-26T06:49:30;6.53;;;3.93;;
8540;SDS011;4308;51.294;6.590;2024-02-26T06:51:58;5.97;;;4.90;;
8540;SDS011;4308;51.294;6.590;2024-02-26T06:54:25;5.37;;;3.83;;
8540;SDS011;4308;51.294;6.590;2024-02-26T06:56:53;7.47;;;4.33;;
8540;SDS011;4308;51.294;6.590;2024-02-26T06:59:20;6.90;;;4.63;;
8540;SDS011;4308;51.294;6.590;2024-02-26T07:01:48;6.03;;;3.60;;
8540;SDS011;4308;51.294;6.590;2024-02-26T07:04:16;3.57;;;3.27;;
8540;SDS011;4308;51.294;6.590;2024-02-26T07:06:43;10.37;;;7.97;;
8540;SDS011;4308;51.294;6.590;2024-02-26T07:09:11;10.10;;;5.10;;
8540;SDS011;4308;51.294;6.590;2024-02-26T07:11:39;6.97;;;4.90;;
8540;SDS011;4308;51.294;6.590;2024-02-26T07:14:08;8.93;;;6.57;;
8540;SDS011;4308;51.294;6.590;2024-02-26T07:16:36;7.67;;;6.20;;
8540;SDS011;4308;51.294;6.590;2024-02-26T07:19:04;12.30;;;8.50;;
8540;SDS011;4308;51.294;6.590;2024-02-26T07:21:31;8.87;;;7.13;;
8540;SDS011;4308;51.294;6.590;2024-02-26T07:23:59;7.17;;;5.13;;
8540;SDS011;4308;51.294;6.590;2024-02-26T07:26:27;9.27;;;6.80;;
8540;SDS011;4308;51.294;6.590;2024-02-26T07:28:54;6.90;;;6.17;;
8540;SDS011;4308;51.294;6.590;2024-02-26T07:31:22;10.07;;;6.47;;
8540;SDS011;4308;51.294;6.590;2024-02-26T07:33:49;4.70;;;4.03;;
8540;SDS011;4308;51.294;6.590;2024-02-26T07:36:17;10.17;;;6.73;;
8540;SDS011;4308;51.294;6.590;2024-02-26T07:38:45;9.50;;;6.80;;
8540;SDS011;4308;51.294;6.590;2024-02-26T07:41:16;5.53;;;3.57;;
8540;SDS011;4308;51.294;6.590;2024-02-26T07:43:43;6.77;;;4.83;;
8540;SDS011;4308;51.294;6.590;2024-02-26T07:46:11;7.63;;;4.97;;
8540;SDS011;4308;51.294;6.590;2024-02-26T07:48:39;6.57;;;4.37;;
8540;SDS011;4308;51.294;6.590;2024-02-26T07:51:07;11.03;;;6.87;;
8540;SDS011;4308;51.294;6.590;2024-02-26T07:53:35;9.70;;;6.47;;
8540;SDS011;4308;51.294;6.590;2024-02-26T07:56:02;6.63;;;5.03;;
8540;SDS011;4308;51.294;6.590;2024-02-26T07:58:31;10.67;;;7.23;;
8540;SDS011;4308;51.294;6.590;2024-02-26T08:00:59;19.07;;;11.37;;
8540;SDS011;4308;51.294;6.590;2024-02-26T08:03:27;13.40;;;8.07;;
8540;SDS011;4308;51.294;6.590;2024-02-26T08:05:55;9.80;;;6.97;;
8540;SDS011;4308;51.294;6.590;2024-02-26T08:08:22;4.27;;;3.53;;
8540;SDS011;4308;51.294;6.590;2024-02-26T08:10:50;4.93;;;3.90;;
8540;SDS011;4308;51.294;6.590;2024-02-26T08:13:17;7.27;;;5.97;;
8540;SDS011;4308;51.294;6.590;2024-02-26T08:15:45;10.30;;;7.40;;
8540;SDS011;4308;51.294;6.590;2024-02-26T08:18:13;9.20;;;6.43;;
8540;SDS011;4308;51.294;6.590;2024-02-26T08:20:40;9.37;;;6.47;;
8540;SDS011;4308;51.294;6.590;2024-02-26T08:23:08;7.40;;;4.80;;
8540;SDS011;4308;51.294;6.590;2024-02-26T08:25:36;9.40;;;5.50;;
8540;SDS011;4308;51.294;6.590;2024-02-26T08:28:06;4.77;;;3.90;;
8540;SDS011;4308;51.294;6.590;2024-02-26T08:30:33;10.70;;;5.07;;
8540;SDS011;4308;51.294;6.590;2024-02-26T08:33:01;8.17;;;5.13;;
8540;SDS011;4308;51.294;6.590;2024-02-26T08:35:29;4.10;;;3.30;;
8540;SDS011;4308;51.294;6.590;2024-02-26T08:37:57;3.63;;;3.10;;
8540;SDS011;4308;51.294;6.590;2024-02-26T08:40:24;9.60;;;5.53;;
8540;SDS011;4308;51.294;6.590;2024-02-26T08:42:52;12.03;;;4.77;;
8540;SDS011;4308;51.294;6.590;2024-02-26T08:45:19;7.80;;;5.20;;
8540;SDS011;4308;51.294;6.590;2024-02-26T08:47:47;8.63;;;6.80;;
8540;SDS011;4308;51.294;6.590;2024-02-26T08:50:15;8.53;;;6.13;;
8540;SDS011;4308;51.294;6.590;2024-02-26T08:52:42;7.93;;;4.10;;
8540;SDS011;4308;51.294;6.590;2024-02-26T08:55:10;6.73;;;4.00;;
8540;SDS011;4308;51.294;6.590;2024-02-26T08:57:37;9.53;;;6.33;;
8540;SDS011;4308;51.294;6.590;2024-02-26T09:00:05;9.30;;;6.80;;
8540;SDS011;4308;51.294;6.590;2024-02-26T09:02:33;6.83;;;4.90;;
8540;SDS011;4308;51.294;6.590;2024-02-26T09:05:01;7.23;;;5.17;;
8540;SDS011;4308;51.294;6.590;2024-02-26T09:07:29;6.07;;;4.57;;
8540;SDS011;4308;51.294;6.590;2024-02-26T09:09:57;10.83;;;6.37;;
8540;SDS011;4308;51.294;6.590;2024-02-26T09:12:24;8.40;;;6.77;;
8540;SDS011;4308;51.294;6.590;2024-02-26T09:14:52;5.50;;;4.07;;
8540;SDS011;4308;51.294;6.590;2024-02-26T09:17:19;6.57;;;4.77;;
8540;SDS011;4308;51.294;6.590;2024-02-26T09:19:47;4.57;;;3.97;;
8540;SDS011;4308;51.294;6.590;2024-02-26T09:22:15;7.47;;;6.40;;
8540;SDS011;4308;51.294;6.590;2024-02-26T09:24:44;7.73;;;4.30;;
8540;SDS011;4308;51.294;6.590;2024-02-26T09:27:12;7.93;;;4.87;;
8540;SDS011;4308;51.294;6.590;2024-02-26T09:29:40;5.53;;;3.50;;
8540;SDS011;4308;51.294;6.590;2024-02-26T09:32:07;7.97;;;4.03;;
8540;SDS011;4308;51.294;6.590;2024-02-26T09:34:35;4.30;;;3.60;;
8540;SDS011;4308;51.294;6.590;2024-02-26T09:37:03;8.00;;;6.67;;
8540;SDS011;4308;51.294;6.590;2024-02-26T09:39:44;3.57;;;3.23;;
8540;SDS011;4308;51.294;6.590;2024-02-26T09:42:11;5.60;;;4.47;;
8540;SDS011;4308;51.294;6.590;2024-02-26T09:44:40;4.37;;;3.60;;
8540;SDS011;4308;51.294;6.590;2024-02-26T09:47:09;4.43;;;3.60;;
8540;SDS011;4308;51.294;6.590;2024-02-26T09:49:37;6.13;;;4.93;;
8540;SDS011;4308;51.294;6.590;2024-02-26T09:52:06;10.37;;;5.50;;
8540;SDS011;4308;51.294;6.590;2024-02-26T09:54:34;6.47;;;4.07;;
8540;SDS011;4308;51.294;6.590;2024-02-26T09:57:02;10.47;;;6.40;;
8540;SDS011;4308;51.294;6.590;2024-02-26T09:59:34;5.83;;;4.87;;
8540;SDS011;4308;51.294;6.590;2024-02-26T10:02:08;11.67;;;5.03;;
8540;SDS011;4308;51.294;6.590;2024-02-26T10:04:36;12.63;;;7.67;;
8540;SDS011;4308;51.294;6.590;2024-02-26T10:07:11;7.07;;;5.13;;
8540;SDS011;4308;51.294;6.590;2024-02-26T10:09:40;12.03;;;8.33;;
8540;SDS011;4308;51.294;6.590;2024-02-26T10:12:08;7.07;;;4.50;;
8540;SDS011;4308;51.294;6.590;2024-02-26T10:14:37;16.50;;;9.57;;
8540;SDS011;4308;51.294;6.590;2024-02-26T10:17:07;6.27;;;4.77;;
8540;SDS011;4308;51.294;6.590;2024-02-26T10:19:34;7.70;;;5.33;;
8540;SDS011;4308;51.294;6.590;2024-02-26T10:22:05;5.40;;;4.90;;
8540;SDS011;4308;51.294;6.590;2024-02-26T10:24:33;5.57;;;5.03;;
8540;SDS011;4308;51.294;6.590;2024-02-26T10:27:00;5.73;;;4.30;;
8540;SDS011;4308;51.294;6.590;2024-02-26T10:29:29;5.80;;;5.30;;
8540;SDS011;4308;51.294;6.590;2024-02-26T10:31:57;4.60;;;3.87;;
8540;SDS011;4308;51.294;6.590;2024-02-26T10:34:24;9.90;;;5.27;;
8540;SDS011;4308;51.294;6.590;2024-02-26T10:36:53;7.77;;;5.57;;
8540;SDS011;4308;51.294;6.590;2024-02-26T10:39:21;14.83;;;11.03;;
8540;SDS011;4308;51.294;6.590;2024-02-26T10:41:49;12.30;;;9.17;;
8540;SDS011;4308;51.294;6.590;2024-02-26T10:44:17;6.67;;;5.03;;
8540;SDS011;4308;51.294;6.590;2024-02-26T10:46:48;11.17;;;8.97;;
8540;SDS011;4308;51.294;6.590;2024-02-26T10:49:16;13.53;;;7.80;;
8540;SDS011;4308;51.294;6.590;2024-02-26T10:51:44;7.20;;;5.60;;
8540;SDS011;4308;51.294;6.590;2024-02-26T10:54:15;8.67;;;5.63;;
8540;SDS011;4308;51.294;6.590;2024-02-26T10:56:43;7.33;;;5.93;;
8540;SDS011;4308;51.294;6.590;2024-02-26T10:59:11;11.43;;;6.90;;
8540;SDS011;4308;51.294;6.590;2024-02-26T11:01:39;8.70;;;7.10;;
8540;SDS011;4308;51.294;6.590;2024-02-26T11:04:08;10.60;;;7.80;;
8540;SDS011;4308;51.294;6.590;2024-02-26T11:06:36;9.63;;;6.47;;
8540;SDS011;4308;51.294;6.590;2024-02-26T11:09:04;9.83;;;6.70;;
8540;SDS011;4308;51.294;6.590;2024-02-26T11:11:33;18.27;;;12.83;;
8540;SDS011;4308;51.294;6.590;2024-02-26T11:14:01;6.83;;;5.57;;
8540;SDS011;4308;51.294;6.590;2024-02-26T11:16:30;11.73;;;8.03;;
8540;SDS011;4308;51.294;6.590;2024-02-26T11:18:58;12.77;;;8.90;;
8540;SDS011;4308;51.294;6.590;2024-02-26T11:21:27;11.37;;;7.13;;
8540;SDS011;4308;51.294;6.590;2024-02-26T11:23:54;10.33;;;8.60;;
8540;SDS011;4308;51.294;6.590;2024-02-26T11:26:22;18.03;;;11.57;;
8540;SDS011;4308;51.294;6.590;2024-02-26T11:28:51;13.30;;;10.40;;
8540;SDS011;4308;51.294;6.590;2024-02-26T11:31:19;8.93;;;7.07;;
8540;SDS011;4308;51.294;6.590;2024-02-26T11:33:47;12.70;;;8.67;;
8540;SDS011;4308;51.294;6.590;2024-02-26T11:36:15;17.23;;;11.10;;
8540;SDS011;4308;51.294;6.590;2024-02-26T11:38:45;9.80;;;7.87;;
8540;SDS011;4308;51.294;6.590;2024-02-26T11:41:14;12.00;;;8.30;;
8540;SDS011;4308;51.294;6.590;2024-02-26T11:46:31;10.13;;;6.90;;
8540;SDS011;4308;51.294;6.590;2024-02-26T11:49:03;9.83;;;6.87;;
8540;SDS011;4308;51.294;6.590;2024-02-26T11:51:34;14.43;;;8.80;;
8540;SDS011;4308;51.294;6.590;2024-02-26T11:54:02;12.17;;;8.50;;
8540;SDS011;4308;51.294;6.590;2024-02-26T11:56:30;11.73;;;7.83;;
8540;SDS011;4308;51.294;6.590;2024-02-26T11:59:01;13.67;;;9.13;;
8540;SDS011;4308;51.294;6.590;2024-02-26T12:04:07;13.97;;;10.37;;
8540;SDS011;4308;51.294;6.590;2024-02-26T12:06:45;15.63;;;11.63;;
8540;SDS011;4308;51.294;6.590;2024-02-26T12:09:13;21.20;;;14.43;;
8540;SDS011;4308;51.294;6.590;2024-02-26T12:11:57;13.97;;;9.20;;
8540;SDS011;4308;51.294;6.590;2024-02-26T12:14:25;19.63;;;10.60;;
8540;SDS011;4308;51.294;6.590;2024-02-26T12:16:53;13.50;;;11.00;;
8540;SDS011;4308;51.294;6.590;2024-02-26T12:19:22;8.03;;;7.23;;
8540;SDS011;4308;51.294;6.590;2024-02-26T12:21:53;14.67;;;8.27;;
8540;SDS011;4308;51.294;6.590;2024-02-26T12:24:20;7.43;;;5.10;;
8540;SDS011;4308;51.294;6.590;2024-02-26T12:26:48;17.23;;;11.47;;
8540;SDS011;4308;51.294;6.590;2024-02-26T12:29:16;9.67;;;6.87;;
8540;SDS011;4308;51.294;6.590;2024-02-26T12:31:44;9.80;;;6.60;;
8540;SDS011;4308;51.294;6.590;2024-02-26T12:34:12;8.93;;;7.00;;
8540;SDS011;4308;51.294;6.590;2024-02-26T12:36:39;13.33;;;9.83;;
8540;SDS011;4308;51.294;6.590;2024-02-26T12:39:07;9.97;;;6.33;;
8540;SDS011;4308;51.294;6.590;2024-02-26T12:41:35;9.40;;;5.87;;
8540;SDS011;4308;51.294;6.590;2024-02-26T12:44:03;8.23;;;5.40;;
8540;SDS011;4308;51.294;6.590;2024-02-26T12:46:30;7.47;;;5.33;;
8540;SDS011;4308;51.294;6.590;2024-02-26T12:48:58;10.60;;;8.47;;
8540;SDS011;4308;51.294;6.590;2024-02-26T12:51:26;8.80;;;6.30;;
8540;SDS011;4308;51.294;6.590;2024-02-26T12:53:55;15.20;;;9.30;;
8540;SDS011;4308;51.294;6.590;2024-02-26T12:56:23;10.20;;;7.60;;
8540;SDS011;4308;51.294;6.590;2024-02-26T12:58:51;9.93;;;6.17;;
8540;SDS011;4308;51.294;6.590;2024-02-26T13:01:20;18.33;;;11.87;;
8540;SDS011;4308;51.294;6.590;2024-02-26T13:03:49;14.17;;;9.63;;
8540;SDS011;4308;51.294;6.590;2024-02-26T13:06:17;12.43;;;8.67;;
8540;SDS011;4308;51.294;6.590;2024-02-26T13:08:45;9.00;;;5.47;;
8540;SDS011;4308;51.294;6.590;2024-02-26T13:11:13;19.00;;;13.00;;
8540;SDS011;4308;51.294;6.590;2024-02-26T13:13:41;17.83;;;10.73;;
8540;SDS011;4308;51.294;6.590;2024-02-26T13:16:13;30.13;;;16.27;;
8540;SDS011;4308;51.294;6.590;2024-02-26T13:18:41;18.23;;;12.17;;
8540;SDS011;4308;51.294;6.590;2024-02-26T13:21:10;19.63;;;13.07;;
8540;SDS011;4308;51.294;6.590;2024-02-26T13:23:40;16.43;;;9.67;;
8540;SDS011;4308;51.294;6.590;2024-02-26T13:26:09;16.53;;;10.83;;
8540;SDS011;4308;51.294;6.590;2024-02-26T13:28:39;14.93;;;10.53;;
8540;SDS011;4308;51.294;6.590;2024-02-26T13:31:06;16.70;;;11.23;;
8540;SDS011;4308;51.294;6.590;2024-02-26T13:33:34;15.70;;;10.57;;
8540;SDS011;4308;51.294;6.590;2024-02-26T13:36:02;14.03;;;9.40;;
8540;SDS011;4308;51.294;6.590;2024-02-26T13:38:30;17.40;;;10.13;;
8540;SDS011;4308;51.294;6.590;2024-02-26T13:40:58;23.00;;;12.10;;
8540;SDS011;4308;51.294;6.590;2024-02-26T13:43:28;13.53;;;9.30;;
8540;SDS011;4308;51.294;6.590;2024-02-26T13:45:55;27.97;;;18.03;;
8540;SDS011;4308;51.294;6.590;2024-02-26T13:48:23;22.70;;;15.33;;
8540;SDS011;4308;51.294;6.590;2024-02-26T13:50:51;17.33;;;12.23;;
8540;SDS011;4308;51.294;6.590;2024-02-26T13:53:19;23.50;;;15.13;;
8540;SDS011;4308;51.294;6.590;2024-02-26T13:55:46;13.70;;;9.23;;
8540;SDS011;4308;51.294;6.590;2024-02-26T13:58:14;10.37;;;8.17;;
8540;SDS011;4308;51.294;6.590;2024-02-26T14:00:42;10.17;;;7.50;;
8540;SDS011;4308;51.294;6.590;2024-02-26T14:03:10;17.03;;;9.97;;
8540;SDS011;4308;51.294;6.590;2024-02-26T14:05:38;12.53;;;9.67;;
8540;SDS011;4308;51.294;6.590;2024-02-26T14:08:06;15.83;;;9.07;;
8540;SDS011;4308;51.294;6.590;2024-02-26T14:10:34;15.77;;;11.27;;
8540;SDS011;4308;51.294;6.590;2024-02-26T14:13:02;12.47;;;7.27;;
8540;SDS011;4308;51.294;6.590;2024-02-26T14:15:29;8.93;;;6.37;;
8540;SDS011;4308;51.294;6.590;2024-02-26T14:17:59;11.33;;;7.13;;
8540;SDS011;4308;51.294;6.590;2024-02-26T14:20:27;10.43;;;7.40;;
8540;SDS011;4308;51.294;6.590;2024-02-26T14:22:55;8.50;;;7.10;;
8540;SDS011;4308;51.294;6.590;2024-02-26T14:25:22;8.10;;;6.17;;
8540;SDS011;4308;51.294;6.590;2024-02-26T14:27:54;10.13;;;6.80;;
8540;SDS011;4308;51.294;6.590;2024-02-26T14:30:21;11.15;;;7.25;;
8540;SDS011;4308;51.294;6.590;2024-02-26T14:32:49;13.50;;;8.87;;
8540;SDS011;4308;51.294;6.590;2024-02-26T14:35:17;7.03;;;5.97;;
8540;SDS011;4308;51.294;6.590;2024-02-26T14:37:45;7.87;;;6.63;;
8540;SDS011;4308;51.294;6.590;2024-02-26T14:40:14;11.70;;;8.63;;
8540;SDS011;4308;51.294;6.590;2024-02-26T14:42:42;8.80;;;5.70;;
8540;SDS011;4308;51.294;6.590;2024-02-26T14:45:10;13.67;;;9.80;;
8540;SDS011;4308;51.294;6.590;2024-02-26T14:47:39;6.20;;;5.37;;
8540;SDS011;4308;51.294;6.590;2024-02-26T14:50:07;8.80;;;6.43;;
8540;SDS011;4308;51.294;6.590;2024-02-26T14:52:35;8.57;;;6.47;;
8540;SDS011;4308;51.294;6.590;2024-02-26T14:55:02;8.53;;;6.53;;
8540;SDS011;4308;51.294;6.590;2024-02-26T14:57:30;10.63;;;8.53;;
8540;SDS011;4308;51.294;6.590;2024-02-26T14:59:58;6.87;;;5.37;;
8540;SDS011;4308;51.294;6.590;2024-02-26T15:02:26;7.17;;;4.90;;
8540;SDS011;4308;51.294;6.590;2024-02-26T15:04:53;10.37;;;6.47;;
8540;SDS011;4308;51.294;6.590;2024-02-26T15:07:21;5.87;;;4.57;;
8540;SDS011;4308;51.294;6.590;2024-02-26T15:09:49;7.70;;;6.27;;
8540;SDS011;4308;51.294;6.590;2024-02-26T15:12:16;11.20;;;5.83;;
8540;SDS011;4308;51.294;6.590;2024-02-26T15:14:44;13.73;;;8.80;;
8540;SDS011;4308;51.294;6.590;2024-02-26T15:17:12;5.30;;;4.33;;
8540;SDS011;4308;51.294;6.590;2024-02-26T15:19:40;12.10;;;8.80;;